<?xml version="1.0" encoding="UTF-8" standalone="no" ?>
<gpx xmlns="http://www.topografix.com/GPX/1/1" xmlns:xsi="http://www.w3.org/2001/XMLSchema-instance" xsi:schemaLocation="http://www.topografix.com/GPX/1/1 http://www.topografix.com/GPX/1/1/gpx.xsd" version="1.1" creator="VisuGPX - https://www.visugpx.com">
  <metadata>
    <name>Autour d\'Echalas</name>
    <desc><![CDATA[A 25 km de Lyon, y a personne, que demander de plus...]]></desc>
  </metadata>
  <trk>
    <name><![CDATA[Sequence 2]]></name>
    <trkseg>
      <trkpt lat="45.56982" lon="4.72993">
        <ele>300</ele>
        <time>2015-05-27T12:51:02Z</time>
      </trkpt>
      <trkpt lat="45.56982" lon="4.72993">
        <ele>300</ele>
        <time>2015-05-27T12:51:05Z</time>
      </trkpt>
      <trkpt lat="45.56982" lon="4.72993">
        <ele>300</ele>
        <time>2015-05-27T12:51:08Z</time>
      </trkpt>
      <trkpt lat="45.56982" lon="4.72993">
        <ele>300</ele>
        <time>2015-05-27T12:51:11Z</time>
      </trkpt>
      <trkpt lat="45.56982" lon="4.72993">
        <ele>300</ele>
        <time>2015-05-27T12:51:14Z</time>
      </trkpt>
      <trkpt lat="45.56983" lon="4.72993">
        <ele>301</ele>
        <time>2015-05-27T12:51:18Z</time>
      </trkpt>
      <trkpt lat="45.56983" lon="4.72993">
        <ele>301</ele>
        <time>2015-05-27T12:51:20Z</time>
      </trkpt>
      <trkpt lat="45.56983" lon="4.72992">
        <ele>301</ele>
        <time>2015-05-27T12:51:23Z</time>
      </trkpt>
      <trkpt lat="45.56983" lon="4.72992">
        <ele>301</ele>
        <time>2015-05-27T12:51:26Z</time>
      </trkpt>
      <trkpt lat="45.56983" lon="4.72992">
        <ele>302</ele>
        <time>2015-05-27T12:51:29Z</time>
      </trkpt>
      <trkpt lat="45.56983" lon="4.72992">
        <ele>301</ele>
        <time>2015-05-27T12:51:32Z</time>
      </trkpt>
      <trkpt lat="45.56983" lon="4.72992">
        <ele>301</ele>
        <time>2015-05-27T12:51:35Z</time>
      </trkpt>
      <trkpt lat="45.56983" lon="4.72992">
        <ele>301</ele>
        <time>2015-05-27T12:51:38Z</time>
      </trkpt>
      <trkpt lat="45.56983" lon="4.72991">
        <ele>301</ele>
        <time>2015-05-27T12:51:41Z</time>
      </trkpt>
      <trkpt lat="45.56982" lon="4.72992">
        <ele>300</ele>
        <time>2015-05-27T12:51:44Z</time>
      </trkpt>
      <trkpt lat="45.56982" lon="4.72993">
        <ele>301</ele>
        <time>2015-05-27T12:51:49Z</time>
      </trkpt>
      <trkpt lat="45.56982" lon="4.72993">
        <ele>301</ele>
        <time>2015-05-27T12:51:53Z</time>
      </trkpt>
      <trkpt lat="45.56982" lon="4.72993">
        <ele>301</ele>
        <time>2015-05-27T12:51:57Z</time>
      </trkpt>
      <trkpt lat="45.56982" lon="4.72993">
        <ele>301</ele>
        <time>2015-05-27T12:51:58Z</time>
      </trkpt>
      <trkpt lat="45.56982" lon="4.72993">
        <ele>301</ele>
        <time>2015-05-27T12:52:01Z</time>
      </trkpt>
      <trkpt lat="45.56983" lon="4.72992">
        <ele>304</ele>
        <time>2015-05-27T12:52:04Z</time>
      </trkpt>
      <trkpt lat="45.56983" lon="4.72995">
        <ele>301</ele>
        <time>2015-05-27T12:52:07Z</time>
      </trkpt>
      <trkpt lat="45.56983" lon="4.72995">
        <ele>301</ele>
        <time>2015-05-27T12:52:12Z</time>
      </trkpt>
      <trkpt lat="45.56985" lon="4.72998">
        <ele>303</ele>
        <time>2015-05-27T12:52:15Z</time>
      </trkpt>
      <trkpt lat="45.5699" lon="4.73009">
        <ele>304</ele>
        <time>2015-05-27T12:52:20Z</time>
      </trkpt>
      <trkpt lat="45.56995" lon="4.7303">
        <ele>305</ele>
        <time>2015-05-27T12:52:25Z</time>
      </trkpt>
      <trkpt lat="45.56999" lon="4.73063">
        <ele>304</ele>
        <time>2015-05-27T12:52:30Z</time>
      </trkpt>
      <trkpt lat="45.57" lon="4.7309">
        <ele>306</ele>
        <time>2015-05-27T12:52:35Z</time>
      </trkpt>
      <trkpt lat="45.57002" lon="4.73095">
        <ele>308</ele>
        <time>2015-05-27T12:52:40Z</time>
      </trkpt>
      <trkpt lat="45.57004" lon="4.73099">
        <ele>308</ele>
        <time>2015-05-27T12:52:45Z</time>
      </trkpt>
      <trkpt lat="45.57004" lon="4.73102">
        <ele>305</ele>
        <time>2015-05-27T12:52:51Z</time>
      </trkpt>
      <trkpt lat="45.57004" lon="4.73102">
        <ele>305</ele>
        <time>2015-05-27T12:52:53Z</time>
      </trkpt>
      <trkpt lat="45.57002" lon="4.73102">
        <ele>303</ele>
        <time>2015-05-27T12:52:58Z</time>
      </trkpt>
      <trkpt lat="45.57002" lon="4.73103">
        <ele>304</ele>
        <time>2015-05-27T12:53:03Z</time>
      </trkpt>
      <trkpt lat="45.57001" lon="4.73103">
        <ele>300</ele>
        <time>2015-05-27T12:53:06Z</time>
      </trkpt>
      <trkpt lat="45.56999" lon="4.73104">
        <ele>300</ele>
        <time>2015-05-27T12:53:13Z</time>
      </trkpt>
      <trkpt lat="45.56998" lon="4.73104">
        <ele>299</ele>
        <time>2015-05-27T12:53:18Z</time>
      </trkpt>
      <trkpt lat="45.56998" lon="4.73104">
        <ele>298</ele>
        <time>2015-05-27T12:53:19Z</time>
      </trkpt>
      <trkpt lat="45.56999" lon="4.73104">
        <ele>298</ele>
        <time>2015-05-27T12:53:22Z</time>
      </trkpt>
      <trkpt lat="45.57001" lon="4.73104">
        <ele>298</ele>
        <time>2015-05-27T12:53:27Z</time>
      </trkpt>
      <trkpt lat="45.57001" lon="4.73105">
        <ele>299</ele>
        <time>2015-05-27T12:53:31Z</time>
      </trkpt>
      <trkpt lat="45.57001" lon="4.73105">
        <ele>299</ele>
        <time>2015-05-27T12:53:33Z</time>
      </trkpt>
      <trkpt lat="45.57003" lon="4.73109">
        <ele>303</ele>
        <time>2015-05-27T12:53:36Z</time>
      </trkpt>
      <trkpt lat="45.57009" lon="4.73122">
        <ele>313</ele>
        <time>2015-05-27T12:53:43Z</time>
      </trkpt>
      <trkpt lat="45.57013" lon="4.73129">
        <ele>319</ele>
        <time>2015-05-27T12:53:46Z</time>
      </trkpt>
      <trkpt lat="45.57018" lon="4.73144">
        <ele>320</ele>
        <time>2015-05-27T12:53:51Z</time>
      </trkpt>
      <trkpt lat="45.57025" lon="4.7316">
        <ele>322</ele>
        <time>2015-05-27T12:53:56Z</time>
      </trkpt>
      <trkpt lat="45.5703" lon="4.73174">
        <ele>322</ele>
        <time>2015-05-27T12:54:01Z</time>
      </trkpt>
      <trkpt lat="45.57036" lon="4.73191">
        <ele>321</ele>
        <time>2015-05-27T12:54:06Z</time>
      </trkpt>
      <trkpt lat="45.57045" lon="4.73211">
        <ele>320</ele>
        <time>2015-05-27T12:54:11Z</time>
      </trkpt>
      <trkpt lat="45.57051" lon="4.73232">
        <ele>319</ele>
        <time>2015-05-27T12:54:16Z</time>
      </trkpt>
      <trkpt lat="45.57052" lon="4.73257">
        <ele>317</ele>
        <time>2015-05-27T12:54:21Z</time>
      </trkpt>
      <trkpt lat="45.57051" lon="4.73285">
        <ele>316</ele>
        <time>2015-05-27T12:54:26Z</time>
      </trkpt>
      <trkpt lat="45.57047" lon="4.73311">
        <ele>316</ele>
        <time>2015-05-27T12:54:31Z</time>
      </trkpt>
      <trkpt lat="45.57041" lon="4.7334">
        <ele>315</ele>
        <time>2015-05-27T12:54:36Z</time>
      </trkpt>
      <trkpt lat="45.57033" lon="4.73373">
        <ele>314</ele>
        <time>2015-05-27T12:54:41Z</time>
      </trkpt>
      <trkpt lat="45.57034" lon="4.73404">
        <ele>313</ele>
        <time>2015-05-27T12:54:46Z</time>
      </trkpt>
      <trkpt lat="45.57046" lon="4.73412">
        <ele>315</ele>
        <time>2015-05-27T12:54:51Z</time>
      </trkpt>
      <trkpt lat="45.57055" lon="4.73416">
        <ele>317</ele>
        <time>2015-05-27T12:54:56Z</time>
      </trkpt>
      <trkpt lat="45.57063" lon="4.73418">
        <ele>322</ele>
        <time>2015-05-27T12:55:01Z</time>
      </trkpt>
      <trkpt lat="45.57072" lon="4.73422">
        <ele>321</ele>
        <time>2015-05-27T12:55:06Z</time>
      </trkpt>
      <trkpt lat="45.57081" lon="4.73426">
        <ele>323</ele>
        <time>2015-05-27T12:55:11Z</time>
      </trkpt>
      <trkpt lat="45.57089" lon="4.73431">
        <ele>324</ele>
        <time>2015-05-27T12:55:16Z</time>
      </trkpt>
      <trkpt lat="45.57096" lon="4.73438">
        <ele>323</ele>
        <time>2015-05-27T12:55:21Z</time>
      </trkpt>
      <trkpt lat="45.57094" lon="4.73449">
        <ele>319</ele>
        <time>2015-05-27T12:55:26Z</time>
      </trkpt>
      <trkpt lat="45.57087" lon="4.7346">
        <ele>317</ele>
        <time>2015-05-27T12:55:31Z</time>
      </trkpt>
      <trkpt lat="45.57078" lon="4.73472">
        <ele>317</ele>
        <time>2015-05-27T12:55:36Z</time>
      </trkpt>
      <trkpt lat="45.57068" lon="4.73484">
        <ele>317</ele>
        <time>2015-05-27T12:55:41Z</time>
      </trkpt>
      <trkpt lat="45.57059" lon="4.73495">
        <ele>317</ele>
        <time>2015-05-27T12:55:46Z</time>
      </trkpt>
      <trkpt lat="45.5705" lon="4.73505">
        <ele>317</ele>
        <time>2015-05-27T12:55:51Z</time>
      </trkpt>
      <trkpt lat="45.57041" lon="4.73515">
        <ele>317</ele>
        <time>2015-05-27T12:55:56Z</time>
      </trkpt>
      <trkpt lat="45.57032" lon="4.73527">
        <ele>317</ele>
        <time>2015-05-27T12:56:01Z</time>
      </trkpt>
      <trkpt lat="45.57022" lon="4.73539">
        <ele>318</ele>
        <time>2015-05-27T12:56:06Z</time>
      </trkpt>
      <trkpt lat="45.57012" lon="4.73551">
        <ele>318</ele>
        <time>2015-05-27T12:56:11Z</time>
      </trkpt>
      <trkpt lat="45.57002" lon="4.73562">
        <ele>319</ele>
        <time>2015-05-27T12:56:16Z</time>
      </trkpt>
      <trkpt lat="45.56992" lon="4.73572">
        <ele>319</ele>
        <time>2015-05-27T12:56:21Z</time>
      </trkpt>
      <trkpt lat="45.56984" lon="4.73583">
        <ele>322</ele>
        <time>2015-05-27T12:56:26Z</time>
      </trkpt>
      <trkpt lat="45.56975" lon="4.73592">
        <ele>324</ele>
        <time>2015-05-27T12:56:31Z</time>
      </trkpt>
      <trkpt lat="45.56967" lon="4.736">
        <ele>326</ele>
        <time>2015-05-27T12:56:36Z</time>
      </trkpt>
      <trkpt lat="45.56957" lon="4.73608">
        <ele>327</ele>
        <time>2015-05-27T12:56:41Z</time>
      </trkpt>
      <trkpt lat="45.56946" lon="4.73617">
        <ele>329</ele>
        <time>2015-05-27T12:56:46Z</time>
      </trkpt>
      <trkpt lat="45.56935" lon="4.73625">
        <ele>329</ele>
        <time>2015-05-27T12:56:51Z</time>
      </trkpt>
      <trkpt lat="45.56924" lon="4.7363">
        <ele>330</ele>
        <time>2015-05-27T12:56:56Z</time>
      </trkpt>
      <trkpt lat="45.56913" lon="4.73634">
        <ele>330</ele>
        <time>2015-05-27T12:57:01Z</time>
      </trkpt>
      <trkpt lat="45.56901" lon="4.73638">
        <ele>331</ele>
        <time>2015-05-27T12:57:06Z</time>
      </trkpt>
      <trkpt lat="45.5689" lon="4.73643">
        <ele>333</ele>
        <time>2015-05-27T12:57:11Z</time>
      </trkpt>
      <trkpt lat="45.56882" lon="4.73653">
        <ele>333</ele>
        <time>2015-05-27T12:57:16Z</time>
      </trkpt>
      <trkpt lat="45.56885" lon="4.7367">
        <ele>332</ele>
        <time>2015-05-27T12:57:21Z</time>
      </trkpt>
      <trkpt lat="45.56888" lon="4.73692">
        <ele>331</ele>
        <time>2015-05-27T12:57:26Z</time>
      </trkpt>
      <trkpt lat="45.56887" lon="4.73717">
        <ele>331</ele>
        <time>2015-05-27T12:57:31Z</time>
      </trkpt>
      <trkpt lat="45.56885" lon="4.73743">
        <ele>332</ele>
        <time>2015-05-27T12:57:36Z</time>
      </trkpt>
      <trkpt lat="45.56879" lon="4.7377">
        <ele>331</ele>
        <time>2015-05-27T12:57:41Z</time>
      </trkpt>
      <trkpt lat="45.56872" lon="4.73796">
        <ele>332</ele>
        <time>2015-05-27T12:57:46Z</time>
      </trkpt>
      <trkpt lat="45.56862" lon="4.73821">
        <ele>332</ele>
        <time>2015-05-27T12:57:51Z</time>
      </trkpt>
      <trkpt lat="45.5685" lon="4.73843">
        <ele>334</ele>
        <time>2015-05-27T12:57:56Z</time>
      </trkpt>
      <trkpt lat="45.56837" lon="4.73862">
        <ele>336</ele>
        <time>2015-05-27T12:58:01Z</time>
      </trkpt>
      <trkpt lat="45.56843" lon="4.73908">
        <ele>336</ele>
        <time>2015-05-27T12:58:10Z</time>
      </trkpt>
      <trkpt lat="45.5684" lon="4.7392">
        <ele>334</ele>
        <time>2015-05-27T12:58:12Z</time>
      </trkpt>
      <trkpt lat="45.56833" lon="4.73945">
        <ele>332</ele>
        <time>2015-05-27T12:58:16Z</time>
      </trkpt>
      <trkpt lat="45.56825" lon="4.73974">
        <ele>332</ele>
        <time>2015-05-27T12:58:21Z</time>
      </trkpt>
      <trkpt lat="45.56817" lon="4.74031">
        <ele>330</ele>
        <time>2015-05-27T12:58:30Z</time>
      </trkpt>
      <trkpt lat="45.56815" lon="4.74035">
        <ele>330</ele>
        <time>2015-05-27T12:58:31Z</time>
      </trkpt>
      <trkpt lat="45.56781" lon="4.74058">
        <ele>330</ele>
        <time>2015-05-27T12:58:40Z</time>
      </trkpt>
      <trkpt lat="45.56778" lon="4.74065">
        <ele>330</ele>
        <time>2015-05-27T12:58:41Z</time>
      </trkpt>
      <trkpt lat="45.56757" lon="4.74113">
        <ele>331</ele>
        <time>2015-05-27T12:58:48Z</time>
      </trkpt>
      <trkpt lat="45.56747" lon="4.74135">
        <ele>333</ele>
        <time>2015-05-27T12:58:53Z</time>
      </trkpt>
      <trkpt lat="45.56739" lon="4.74147">
        <ele>333</ele>
        <time>2015-05-27T12:58:57Z</time>
      </trkpt>
      <trkpt lat="45.56733" lon="4.7416">
        <ele>333</ele>
        <time>2015-05-27T12:59:01Z</time>
      </trkpt>
      <trkpt lat="45.5672" lon="4.74171">
        <ele>334</ele>
        <time>2015-05-27T12:59:06Z</time>
      </trkpt>
      <trkpt lat="45.56703" lon="4.74188">
        <ele>336</ele>
        <time>2015-05-27T12:59:13Z</time>
      </trkpt>
      <trkpt lat="45.56696" lon="4.74195">
        <ele>336</ele>
        <time>2015-05-27T12:59:16Z</time>
      </trkpt>
      <trkpt lat="45.56671" lon="4.74215">
        <ele>334</ele>
        <time>2015-05-27T12:59:25Z</time>
      </trkpt>
      <trkpt lat="45.56669" lon="4.74217">
        <ele>335</ele>
        <time>2015-05-27T12:59:26Z</time>
      </trkpt>
      <trkpt lat="45.56654" lon="4.74228">
        <ele>335</ele>
        <time>2015-05-27T12:59:31Z</time>
      </trkpt>
      <trkpt lat="45.56641" lon="4.74242">
        <ele>333</ele>
        <time>2015-05-27T12:59:36Z</time>
      </trkpt>
      <trkpt lat="45.56625" lon="4.74254">
        <ele>333</ele>
        <time>2015-05-27T12:59:41Z</time>
      </trkpt>
      <trkpt lat="45.56609" lon="4.74264">
        <ele>333</ele>
        <time>2015-05-27T12:59:46Z</time>
      </trkpt>
      <trkpt lat="45.56587" lon="4.74277">
        <ele>332</ele>
        <time>2015-05-27T12:59:53Z</time>
      </trkpt>
      <trkpt lat="45.56577" lon="4.74284">
        <ele>331</ele>
        <time>2015-05-27T12:59:56Z</time>
      </trkpt>
      <trkpt lat="45.56553" lon="4.74297">
        <ele>331</ele>
        <time>2015-05-27T13:00:02Z</time>
      </trkpt>
      <trkpt lat="45.56531" lon="4.74301">
        <ele>335</ele>
        <time>2015-05-27T13:00:10Z</time>
      </trkpt>
      <trkpt lat="45.56529" lon="4.743">
        <ele>334</ele>
        <time>2015-05-27T13:00:11Z</time>
      </trkpt>
      <trkpt lat="45.56514" lon="4.74293">
        <ele>334</ele>
        <time>2015-05-27T13:00:16Z</time>
      </trkpt>
      <trkpt lat="45.56497" lon="4.74286">
        <ele>337</ele>
        <time>2015-05-27T13:00:21Z</time>
      </trkpt>
      <trkpt lat="45.56483" lon="4.7428">
        <ele>337</ele>
        <time>2015-05-27T13:00:26Z</time>
      </trkpt>
      <trkpt lat="45.5646" lon="4.74269">
        <ele>335</ele>
        <time>2015-05-27T13:00:35Z</time>
      </trkpt>
      <trkpt lat="45.56448" lon="4.74265">
        <ele>336</ele>
        <time>2015-05-27T13:00:40Z</time>
      </trkpt>
      <trkpt lat="45.56445" lon="4.74265">
        <ele>336</ele>
        <time>2015-05-27T13:00:41Z</time>
      </trkpt>
      <trkpt lat="45.56433" lon="4.74263">
        <ele>336</ele>
        <time>2015-05-27T13:00:46Z</time>
      </trkpt>
      <trkpt lat="45.56423" lon="4.74263">
        <ele>336</ele>
        <time>2015-05-27T13:00:51Z</time>
      </trkpt>
      <trkpt lat="45.56409" lon="4.74261">
        <ele>337</ele>
        <time>2015-05-27T13:00:56Z</time>
      </trkpt>
      <trkpt lat="45.56399" lon="4.7426">
        <ele>337</ele>
        <time>2015-05-27T13:01:01Z</time>
      </trkpt>
      <trkpt lat="45.56384" lon="4.74258">
        <ele>336</ele>
        <time>2015-05-27T13:01:08Z</time>
      </trkpt>
      <trkpt lat="45.5638" lon="4.74256">
        <ele>337</ele>
        <time>2015-05-27T13:01:11Z</time>
      </trkpt>
      <trkpt lat="45.56376" lon="4.74265">
        <ele>335</ele>
        <time>2015-05-27T13:01:16Z</time>
      </trkpt>
      <trkpt lat="45.56375" lon="4.74282">
        <ele>334</ele>
        <time>2015-05-27T13:01:21Z</time>
      </trkpt>
      <trkpt lat="45.56376" lon="4.74298">
        <ele>337</ele>
        <time>2015-05-27T13:01:26Z</time>
      </trkpt>
      <trkpt lat="45.56375" lon="4.74316">
        <ele>337</ele>
        <time>2015-05-27T13:01:31Z</time>
      </trkpt>
      <trkpt lat="45.56372" lon="4.7434">
        <ele>338</ele>
        <time>2015-05-27T13:01:40Z</time>
      </trkpt>
      <trkpt lat="45.5637" lon="4.74342">
        <ele>339</ele>
        <time>2015-05-27T13:01:41Z</time>
      </trkpt>
      <trkpt lat="45.5636" lon="4.74354">
        <ele>337</ele>
        <time>2015-05-27T13:01:46Z</time>
      </trkpt>
      <trkpt lat="45.56348" lon="4.74364">
        <ele>339</ele>
        <time>2015-05-27T13:01:51Z</time>
      </trkpt>
      <trkpt lat="45.56338" lon="4.74375">
        <ele>337</ele>
        <time>2015-05-27T13:01:56Z</time>
      </trkpt>
      <trkpt lat="45.56322" lon="4.74389">
        <ele>340</ele>
        <time>2015-05-27T13:02:03Z</time>
      </trkpt>
      <trkpt lat="45.56315" lon="4.74396">
        <ele>341</ele>
        <time>2015-05-27T13:02:06Z</time>
      </trkpt>
      <trkpt lat="45.56301" lon="4.74406">
        <ele>343</ele>
        <time>2015-05-27T13:02:11Z</time>
      </trkpt>
      <trkpt lat="45.56288" lon="4.74415">
        <ele>340</ele>
        <time>2015-05-27T13:02:16Z</time>
      </trkpt>
      <trkpt lat="45.56267" lon="4.74423">
        <ele>341</ele>
        <time>2015-05-27T13:02:24Z</time>
      </trkpt>
      <trkpt lat="45.56261" lon="4.74425">
        <ele>342</ele>
        <time>2015-05-27T13:02:26Z</time>
      </trkpt>
      <trkpt lat="45.56244" lon="4.74431">
        <ele>347</ele>
        <time>2015-05-27T13:02:33Z</time>
      </trkpt>
      <trkpt lat="45.56236" lon="4.74433">
        <ele>349</ele>
        <time>2015-05-27T13:02:36Z</time>
      </trkpt>
      <trkpt lat="45.56218" lon="4.74441">
        <ele>350</ele>
        <time>2015-05-27T13:02:45Z</time>
      </trkpt>
      <trkpt lat="45.56216" lon="4.74442">
        <ele>350</ele>
        <time>2015-05-27T13:02:46Z</time>
      </trkpt>
      <trkpt lat="45.56206" lon="4.74445">
        <ele>348</ele>
        <time>2015-05-27T13:02:51Z</time>
      </trkpt>
      <trkpt lat="45.56194" lon="4.74455">
        <ele>348</ele>
        <time>2015-05-27T13:02:59Z</time>
      </trkpt>
      <trkpt lat="45.5619" lon="4.74459">
        <ele>348</ele>
        <time>2015-05-27T13:03:01Z</time>
      </trkpt>
      <trkpt lat="45.56178" lon="4.74466">
        <ele>348</ele>
        <time>2015-05-27T13:03:06Z</time>
      </trkpt>
      <trkpt lat="45.56166" lon="4.74472">
        <ele>351</ele>
        <time>2015-05-27T13:03:11Z</time>
      </trkpt>
      <trkpt lat="45.56154" lon="4.74479">
        <ele>349</ele>
        <time>2015-05-27T13:03:16Z</time>
      </trkpt>
      <trkpt lat="45.56143" lon="4.74486">
        <ele>351</ele>
        <time>2015-05-27T13:03:21Z</time>
      </trkpt>
      <trkpt lat="45.5613" lon="4.74493">
        <ele>347</ele>
        <time>2015-05-27T13:03:26Z</time>
      </trkpt>
      <trkpt lat="45.56117" lon="4.74498">
        <ele>346</ele>
        <time>2015-05-27T13:03:31Z</time>
      </trkpt>
      <trkpt lat="45.56101" lon="4.74507">
        <ele>349</ele>
        <time>2015-05-27T13:03:39Z</time>
      </trkpt>
      <trkpt lat="45.56097" lon="4.7451">
        <ele>350</ele>
        <time>2015-05-27T13:03:41Z</time>
      </trkpt>
      <trkpt lat="45.56088" lon="4.74523">
        <ele>350</ele>
        <time>2015-05-27T13:03:46Z</time>
      </trkpt>
      <trkpt lat="45.56079" lon="4.74535">
        <ele>351</ele>
        <time>2015-05-27T13:03:51Z</time>
      </trkpt>
      <trkpt lat="45.56068" lon="4.74546">
        <ele>354</ele>
        <time>2015-05-27T13:03:56Z</time>
      </trkpt>
      <trkpt lat="45.56062" lon="4.74559">
        <ele>354</ele>
        <time>2015-05-27T13:04:01Z</time>
      </trkpt>
      <trkpt lat="45.56056" lon="4.74574">
        <ele>353</ele>
        <time>2015-05-27T13:04:06Z</time>
      </trkpt>
      <trkpt lat="45.56047" lon="4.74586">
        <ele>354</ele>
        <time>2015-05-27T13:04:11Z</time>
      </trkpt>
      <trkpt lat="45.56027" lon="4.7461">
        <ele>358</ele>
        <time>2015-05-27T13:04:20Z</time>
      </trkpt>
      <trkpt lat="45.56017" lon="4.74628">
        <ele>356</ele>
        <time>2015-05-27T13:04:25Z</time>
      </trkpt>
      <trkpt lat="45.56014" lon="4.74631">
        <ele>357</ele>
        <time>2015-05-27T13:04:26Z</time>
      </trkpt>
      <trkpt lat="45.56002" lon="4.74651">
        <ele>356</ele>
        <time>2015-05-27T13:04:31Z</time>
      </trkpt>
      <trkpt lat="45.55996" lon="4.74679">
        <ele>355</ele>
        <time>2015-05-27T13:04:36Z</time>
      </trkpt>
      <trkpt lat="45.55986" lon="4.74709">
        <ele>354</ele>
        <time>2015-05-27T13:04:41Z</time>
      </trkpt>
      <trkpt lat="45.55975" lon="4.74694">
        <ele>356</ele>
        <time>2015-05-27T13:04:46Z</time>
      </trkpt>
      <trkpt lat="45.5597" lon="4.74677">
        <ele>357</ele>
        <time>2015-05-27T13:04:51Z</time>
      </trkpt>
      <trkpt lat="45.55967" lon="4.74662">
        <ele>359</ele>
        <time>2015-05-27T13:04:56Z</time>
      </trkpt>
      <trkpt lat="45.55962" lon="4.74643">
        <ele>359</ele>
        <time>2015-05-27T13:05:01Z</time>
      </trkpt>
      <trkpt lat="45.55962" lon="4.74623">
        <ele>359</ele>
        <time>2015-05-27T13:05:06Z</time>
      </trkpt>
      <trkpt lat="45.55957" lon="4.74601">
        <ele>361</ele>
        <time>2015-05-27T13:05:12Z</time>
      </trkpt>
      <trkpt lat="45.55952" lon="4.74583">
        <ele>361</ele>
        <time>2015-05-27T13:05:16Z</time>
      </trkpt>
      <trkpt lat="45.55949" lon="4.74563">
        <ele>361</ele>
        <time>2015-05-27T13:05:21Z</time>
      </trkpt>
      <trkpt lat="45.55947" lon="4.74545">
        <ele>361</ele>
        <time>2015-05-27T13:05:26Z</time>
      </trkpt>
      <trkpt lat="45.55945" lon="4.74528">
        <ele>363</ele>
        <time>2015-05-27T13:05:31Z</time>
      </trkpt>
      <trkpt lat="45.55941" lon="4.74505">
        <ele>362</ele>
        <time>2015-05-27T13:05:38Z</time>
      </trkpt>
      <trkpt lat="45.55938" lon="4.74495">
        <ele>362</ele>
        <time>2015-05-27T13:05:41Z</time>
      </trkpt>
      <trkpt lat="45.55936" lon="4.74479">
        <ele>363</ele>
        <time>2015-05-27T13:05:46Z</time>
      </trkpt>
      <trkpt lat="45.55933" lon="4.74464">
        <ele>365</ele>
        <time>2015-05-27T13:05:51Z</time>
      </trkpt>
      <trkpt lat="45.5593" lon="4.74448">
        <ele>365</ele>
        <time>2015-05-27T13:05:56Z</time>
      </trkpt>
      <trkpt lat="45.55922" lon="4.74428">
        <ele>367</ele>
        <time>2015-05-27T13:06:03Z</time>
      </trkpt>
      <trkpt lat="45.55917" lon="4.74405">
        <ele>368</ele>
        <time>2015-05-27T13:06:10Z</time>
      </trkpt>
      <trkpt lat="45.55914" lon="4.74396">
        <ele>370</ele>
        <time>2015-05-27T13:06:13Z</time>
      </trkpt>
      <trkpt lat="45.55912" lon="4.74387">
        <ele>371</ele>
        <time>2015-05-27T13:06:16Z</time>
      </trkpt>
      <trkpt lat="45.55909" lon="4.74372">
        <ele>372</ele>
        <time>2015-05-27T13:06:21Z</time>
      </trkpt>
      <trkpt lat="45.55906" lon="4.74356">
        <ele>373</ele>
        <time>2015-05-27T13:06:26Z</time>
      </trkpt>
      <trkpt lat="45.55903" lon="4.74338">
        <ele>373</ele>
        <time>2015-05-27T13:06:31Z</time>
      </trkpt>
      <trkpt lat="45.55901" lon="4.74323">
        <ele>373</ele>
        <time>2015-05-27T13:06:36Z</time>
      </trkpt>
      <trkpt lat="45.55896" lon="4.74296">
        <ele>372</ele>
        <time>2015-05-27T13:06:45Z</time>
      </trkpt>
      <trkpt lat="45.55894" lon="4.74283">
        <ele>372</ele>
        <time>2015-05-27T13:06:49Z</time>
      </trkpt>
      <trkpt lat="45.55892" lon="4.74277">
        <ele>373</ele>
        <time>2015-05-27T13:06:51Z</time>
      </trkpt>
      <trkpt lat="45.55887" lon="4.74262">
        <ele>374</ele>
        <time>2015-05-27T13:06:56Z</time>
      </trkpt>
      <trkpt lat="45.55882" lon="4.74247">
        <ele>374</ele>
        <time>2015-05-27T13:07:01Z</time>
      </trkpt>
      <trkpt lat="45.55877" lon="4.74232">
        <ele>374</ele>
        <time>2015-05-27T13:07:06Z</time>
      </trkpt>
      <trkpt lat="45.55871" lon="4.74216">
        <ele>375</ele>
        <time>2015-05-27T13:07:11Z</time>
      </trkpt>
      <trkpt lat="45.55866" lon="4.74199">
        <ele>375</ele>
        <time>2015-05-27T13:07:16Z</time>
      </trkpt>
      <trkpt lat="45.5586" lon="4.74183">
        <ele>376</ele>
        <time>2015-05-27T13:07:21Z</time>
      </trkpt>
      <trkpt lat="45.55853" lon="4.74165">
        <ele>375</ele>
        <time>2015-05-27T13:07:26Z</time>
      </trkpt>
      <trkpt lat="45.55846" lon="4.74148">
        <ele>375</ele>
        <time>2015-05-27T13:07:31Z</time>
      </trkpt>
      <trkpt lat="45.5584" lon="4.74129">
        <ele>373</ele>
        <time>2015-05-27T13:07:36Z</time>
      </trkpt>
      <trkpt lat="45.55834" lon="4.74111">
        <ele>374</ele>
        <time>2015-05-27T13:07:41Z</time>
      </trkpt>
      <trkpt lat="45.55824" lon="4.74098">
        <ele>374</ele>
        <time>2015-05-27T13:07:46Z</time>
      </trkpt>
      <trkpt lat="45.55812" lon="4.74108">
        <ele>374</ele>
        <time>2015-05-27T13:07:51Z</time>
      </trkpt>
      <trkpt lat="45.558" lon="4.74125">
        <ele>375</ele>
        <time>2015-05-27T13:07:58Z</time>
      </trkpt>
      <trkpt lat="45.55795" lon="4.74133">
        <ele>374</ele>
        <time>2015-05-27T13:08:01Z</time>
      </trkpt>
      <trkpt lat="45.55787" lon="4.74144">
        <ele>373</ele>
        <time>2015-05-27T13:08:06Z</time>
      </trkpt>
      <trkpt lat="45.5578" lon="4.74153">
        <ele>375</ele>
        <time>2015-05-27T13:08:11Z</time>
      </trkpt>
      <trkpt lat="45.55771" lon="4.74161">
        <ele>374</ele>
        <time>2015-05-27T13:08:16Z</time>
      </trkpt>
      <trkpt lat="45.55762" lon="4.74171">
        <ele>373</ele>
        <time>2015-05-27T13:08:21Z</time>
      </trkpt>
      <trkpt lat="45.55754" lon="4.74178">
        <ele>377</ele>
        <time>2015-05-27T13:08:26Z</time>
      </trkpt>
      <trkpt lat="45.55744" lon="4.74188">
        <ele>375</ele>
        <time>2015-05-27T13:08:31Z</time>
      </trkpt>
      <trkpt lat="45.55737" lon="4.74197">
        <ele>374</ele>
        <time>2015-05-27T13:08:36Z</time>
      </trkpt>
      <trkpt lat="45.55729" lon="4.74207">
        <ele>375</ele>
        <time>2015-05-27T13:08:41Z</time>
      </trkpt>
      <trkpt lat="45.55719" lon="4.74215">
        <ele>377</ele>
        <time>2015-05-27T13:08:46Z</time>
      </trkpt>
      <trkpt lat="45.55712" lon="4.74226">
        <ele>378</ele>
        <time>2015-05-27T13:08:51Z</time>
      </trkpt>
      <trkpt lat="45.55702" lon="4.74241">
        <ele>381</ele>
        <time>2015-05-27T13:08:58Z</time>
      </trkpt>
      <trkpt lat="45.55697" lon="4.74246">
        <ele>383</ele>
        <time>2015-05-27T13:09:01Z</time>
      </trkpt>
      <trkpt lat="45.55687" lon="4.74256">
        <ele>383</ele>
        <time>2015-05-27T13:09:07Z</time>
      </trkpt>
      <trkpt lat="45.55676" lon="4.7426">
        <ele>386</ele>
        <time>2015-05-27T13:09:13Z</time>
      </trkpt>
      <trkpt lat="45.55671" lon="4.74264">
        <ele>387</ele>
        <time>2015-05-27T13:09:16Z</time>
      </trkpt>
      <trkpt lat="45.55661" lon="4.74273">
        <ele>390</ele>
        <time>2015-05-27T13:09:23Z</time>
      </trkpt>
      <trkpt lat="45.55655" lon="4.74276">
        <ele>394</ele>
        <time>2015-05-27T13:09:26Z</time>
      </trkpt>
      <trkpt lat="45.55644" lon="4.74284">
        <ele>396</ele>
        <time>2015-05-27T13:09:33Z</time>
      </trkpt>
      <trkpt lat="45.5564" lon="4.74287">
        <ele>394</ele>
        <time>2015-05-27T13:09:36Z</time>
      </trkpt>
      <trkpt lat="45.55631" lon="4.74291">
        <ele>395</ele>
        <time>2015-05-27T13:09:41Z</time>
      </trkpt>
      <trkpt lat="45.55619" lon="4.74294">
        <ele>396</ele>
        <time>2015-05-27T13:09:47Z</time>
      </trkpt>
      <trkpt lat="45.55612" lon="4.74299">
        <ele>395</ele>
        <time>2015-05-27T13:09:52Z</time>
      </trkpt>
      <trkpt lat="45.55605" lon="4.74302">
        <ele>393</ele>
        <time>2015-05-27T13:09:56Z</time>
      </trkpt>
      <trkpt lat="45.55589" lon="4.74308">
        <ele>397</ele>
        <time>2015-05-27T13:10:04Z</time>
      </trkpt>
      <trkpt lat="45.55585" lon="4.74309">
        <ele>400</ele>
        <time>2015-05-27T13:10:06Z</time>
      </trkpt>
      <trkpt lat="45.55569" lon="4.74318">
        <ele>399</ele>
        <time>2015-05-27T13:10:15Z</time>
      </trkpt>
      <trkpt lat="45.55567" lon="4.74319">
        <ele>398</ele>
        <time>2015-05-27T13:10:16Z</time>
      </trkpt>
      <trkpt lat="45.55548" lon="4.74328">
        <ele>398</ele>
        <time>2015-05-27T13:10:24Z</time>
      </trkpt>
      <trkpt lat="45.55542" lon="4.74329">
        <ele>398</ele>
        <time>2015-05-27T13:10:26Z</time>
      </trkpt>
      <trkpt lat="45.5553" lon="4.74334">
        <ele>400</ele>
        <time>2015-05-27T13:10:31Z</time>
      </trkpt>
      <trkpt lat="45.55517" lon="4.74339">
        <ele>398</ele>
        <time>2015-05-27T13:10:36Z</time>
      </trkpt>
      <trkpt lat="45.555" lon="4.74343">
        <ele>396</ele>
        <time>2015-05-27T13:10:41Z</time>
      </trkpt>
      <trkpt lat="45.55478" lon="4.74345">
        <ele>396</ele>
        <time>2015-05-27T13:10:46Z</time>
      </trkpt>
      <trkpt lat="45.55452" lon="4.7435">
        <ele>397</ele>
        <time>2015-05-27T13:10:54Z</time>
      </trkpt>
      <trkpt lat="45.55446" lon="4.74352">
        <ele>396</ele>
        <time>2015-05-27T13:10:56Z</time>
      </trkpt>
      <trkpt lat="45.5543" lon="4.74353">
        <ele>395</ele>
        <time>2015-05-27T13:11:01Z</time>
      </trkpt>
      <trkpt lat="45.55413" lon="4.74353">
        <ele>397</ele>
        <time>2015-05-27T13:11:06Z</time>
      </trkpt>
      <trkpt lat="45.55386" lon="4.74355">
        <ele>396</ele>
        <time>2015-05-27T13:11:14Z</time>
      </trkpt>
      <trkpt lat="45.55376" lon="4.74354">
        <ele>396</ele>
        <time>2015-05-27T13:11:17Z</time>
      </trkpt>
      <trkpt lat="45.55363" lon="4.74356">
        <ele>395</ele>
        <time>2015-05-27T13:11:22Z</time>
      </trkpt>
      <trkpt lat="45.5535" lon="4.74358">
        <ele>394</ele>
        <time>2015-05-27T13:11:28Z</time>
      </trkpt>
      <trkpt lat="45.55339" lon="4.74359">
        <ele>396</ele>
        <time>2015-05-27T13:11:32Z</time>
      </trkpt>
      <trkpt lat="45.5533" lon="4.74362">
        <ele>397</ele>
        <time>2015-05-27T13:11:36Z</time>
      </trkpt>
      <trkpt lat="45.55318" lon="4.74366">
        <ele>397</ele>
        <time>2015-05-27T13:11:41Z</time>
      </trkpt>
      <trkpt lat="45.55303" lon="4.74368">
        <ele>400</ele>
        <time>2015-05-27T13:11:46Z</time>
      </trkpt>
      <trkpt lat="45.55294" lon="4.74374">
        <ele>401</ele>
        <time>2015-05-27T13:11:51Z</time>
      </trkpt>
      <trkpt lat="45.55284" lon="4.7438">
        <ele>403</ele>
        <time>2015-05-27T13:11:56Z</time>
      </trkpt>
      <trkpt lat="45.55264" lon="4.7439">
        <ele>406</ele>
        <time>2015-05-27T13:12:05Z</time>
      </trkpt>
      <trkpt lat="45.55262" lon="4.74392">
        <ele>404</ele>
        <time>2015-05-27T13:12:06Z</time>
      </trkpt>
      <trkpt lat="45.5525" lon="4.74395">
        <ele>410</ele>
        <time>2015-05-27T13:12:11Z</time>
      </trkpt>
      <trkpt lat="45.55234" lon="4.74404">
        <ele>410</ele>
        <time>2015-05-27T13:12:19Z</time>
      </trkpt>
      <trkpt lat="45.5523" lon="4.74402">
        <ele>410</ele>
        <time>2015-05-27T13:12:22Z</time>
      </trkpt>
      <trkpt lat="45.55218" lon="4.744">
        <ele>411</ele>
        <time>2015-05-27T13:12:30Z</time>
      </trkpt>
      <trkpt lat="45.55216" lon="4.744">
        <ele>412</ele>
        <time>2015-05-27T13:12:31Z</time>
      </trkpt>
      <trkpt lat="45.55205" lon="4.74395">
        <ele>415</ele>
        <time>2015-05-27T13:12:38Z</time>
      </trkpt>
      <trkpt lat="45.55198" lon="4.74399">
        <ele>413</ele>
        <time>2015-05-27T13:12:43Z</time>
      </trkpt>
      <trkpt lat="45.55193" lon="4.74401">
        <ele>413</ele>
        <time>2015-05-27T13:12:46Z</time>
      </trkpt>
      <trkpt lat="45.55182" lon="4.74399">
        <ele>414</ele>
        <time>2015-05-27T13:12:54Z</time>
      </trkpt>
      <trkpt lat="45.5518" lon="4.74399">
        <ele>414</ele>
        <time>2015-05-27T13:12:56Z</time>
      </trkpt>
      <trkpt lat="45.55169" lon="4.74398">
        <ele>417</ele>
        <time>2015-05-27T13:13:01Z</time>
      </trkpt>
      <trkpt lat="45.55157" lon="4.74393">
        <ele>416</ele>
        <time>2015-05-27T13:13:09Z</time>
      </trkpt>
      <trkpt lat="45.55151" lon="4.74392">
        <ele>413</ele>
        <time>2015-05-27T13:13:15Z</time>
      </trkpt>
      <trkpt lat="45.55149" lon="4.74391">
        <ele>414</ele>
        <time>2015-05-27T13:13:16Z</time>
      </trkpt>
      <trkpt lat="45.55137" lon="4.74386">
        <ele>413</ele>
        <time>2015-05-27T13:13:23Z</time>
      </trkpt>
      <trkpt lat="45.55136" lon="4.74387">
        <ele>415</ele>
        <time>2015-05-27T13:13:26Z</time>
      </trkpt>
      <trkpt lat="45.55128" lon="4.74389">
        <ele>416</ele>
        <time>2015-05-27T13:13:32Z</time>
      </trkpt>
      <trkpt lat="45.55121" lon="4.74386">
        <ele>418</ele>
        <time>2015-05-27T13:13:38Z</time>
      </trkpt>
      <trkpt lat="45.5512" lon="4.74386">
        <ele>417</ele>
        <time>2015-05-27T13:13:41Z</time>
      </trkpt>
      <trkpt lat="45.55113" lon="4.74384">
        <ele>415</ele>
        <time>2015-05-27T13:13:46Z</time>
      </trkpt>
      <trkpt lat="45.55101" lon="4.7438">
        <ele>415</ele>
        <time>2015-05-27T13:13:53Z</time>
      </trkpt>
      <trkpt lat="45.55098" lon="4.7438">
        <ele>414</ele>
        <time>2015-05-27T13:13:56Z</time>
      </trkpt>
      <trkpt lat="45.5509" lon="4.74382">
        <ele>416</ele>
        <time>2015-05-27T13:14:03Z</time>
      </trkpt>
      <trkpt lat="45.55087" lon="4.74384">
        <ele>417</ele>
        <time>2015-05-27T13:14:07Z</time>
      </trkpt>
      <trkpt lat="45.55081" lon="4.74381">
        <ele>418</ele>
        <time>2015-05-27T13:14:11Z</time>
      </trkpt>
      <trkpt lat="45.55075" lon="4.74381">
        <ele>420</ele>
        <time>2015-05-27T13:14:16Z</time>
      </trkpt>
      <trkpt lat="45.55069" lon="4.7438">
        <ele>421</ele>
        <time>2015-05-27T13:14:21Z</time>
      </trkpt>
      <trkpt lat="45.5506" lon="4.74377">
        <ele>422</ele>
        <time>2015-05-27T13:14:30Z</time>
      </trkpt>
      <trkpt lat="45.55055" lon="4.74376">
        <ele>421</ele>
        <time>2015-05-27T13:14:32Z</time>
      </trkpt>
      <trkpt lat="45.55049" lon="4.7437">
        <ele>422</ele>
        <time>2015-05-27T13:14:36Z</time>
      </trkpt>
      <trkpt lat="45.55042" lon="4.74368">
        <ele>427</ele>
        <time>2015-05-27T13:14:45Z</time>
      </trkpt>
      <trkpt lat="45.55041" lon="4.7437">
        <ele>427</ele>
        <time>2015-05-27T13:14:46Z</time>
      </trkpt>
      <trkpt lat="45.55031" lon="4.7437">
        <ele>429</ele>
        <time>2015-05-27T13:14:55Z</time>
      </trkpt>
      <trkpt lat="45.55031" lon="4.74371">
        <ele>429</ele>
        <time>2015-05-27T13:14:56Z</time>
      </trkpt>
      <trkpt lat="45.55027" lon="4.7437">
        <ele>432</ele>
        <time>2015-05-27T13:15:01Z</time>
      </trkpt>
      <trkpt lat="45.5502" lon="4.74369">
        <ele>434</ele>
        <time>2015-05-27T13:15:08Z</time>
      </trkpt>
      <trkpt lat="45.55018" lon="4.74367">
        <ele>438</ele>
        <time>2015-05-27T13:15:13Z</time>
      </trkpt>
      <trkpt lat="45.55007" lon="4.74365">
        <ele>443</ele>
        <time>2015-05-27T13:15:20Z</time>
      </trkpt>
      <trkpt lat="45.55002" lon="4.74364">
        <ele>444</ele>
        <time>2015-05-27T13:15:25Z</time>
      </trkpt>
      <trkpt lat="45.55" lon="4.74365">
        <ele>443</ele>
        <time>2015-05-27T13:15:26Z</time>
      </trkpt>
      <trkpt lat="45.54992" lon="4.74362">
        <ele>444</ele>
        <time>2015-05-27T13:15:32Z</time>
      </trkpt>
      <trkpt lat="45.54987" lon="4.74359">
        <ele>447</ele>
        <time>2015-05-27T13:15:36Z</time>
      </trkpt>
      <trkpt lat="45.54983" lon="4.7436">
        <ele>451</ele>
        <time>2015-05-27T13:15:42Z</time>
      </trkpt>
      <trkpt lat="45.54981" lon="4.7436">
        <ele>453</ele>
        <time>2015-05-27T13:15:47Z</time>
      </trkpt>
      <trkpt lat="45.54981" lon="4.74361">
        <ele>454</ele>
        <time>2015-05-27T13:15:50Z</time>
      </trkpt>
      <trkpt lat="45.5498" lon="4.74361">
        <ele>455</ele>
        <time>2015-05-27T13:15:52Z</time>
      </trkpt>
      <trkpt lat="45.54979" lon="4.74363">
        <ele>453</ele>
        <time>2015-05-27T13:15:59Z</time>
      </trkpt>
      <trkpt lat="45.54978" lon="4.74363">
        <ele>454</ele>
        <time>2015-05-27T13:16:00Z</time>
      </trkpt>
      <trkpt lat="45.5497" lon="4.74369">
        <ele>452</ele>
        <time>2015-05-27T13:16:06Z</time>
      </trkpt>
      <trkpt lat="45.54963" lon="4.74368">
        <ele>454</ele>
        <time>2015-05-27T13:16:10Z</time>
      </trkpt>
      <trkpt lat="45.54958" lon="4.74369">
        <ele>458</ele>
        <time>2015-05-27T13:16:15Z</time>
      </trkpt>
      <trkpt lat="45.54936" lon="4.74374">
        <ele>457</ele>
        <time>2015-05-27T13:16:30Z</time>
      </trkpt>
      <trkpt lat="45.54928" lon="4.74377">
        <ele>454</ele>
        <time>2015-05-27T13:16:35Z</time>
      </trkpt>
      <trkpt lat="45.54926" lon="4.74378">
        <ele>452</ele>
        <time>2015-05-27T13:16:37Z</time>
      </trkpt>
      <trkpt lat="45.54923" lon="4.74382">
        <ele>452</ele>
        <time>2015-05-27T13:16:41Z</time>
      </trkpt>
      <trkpt lat="45.54915" lon="4.74383">
        <ele>453</ele>
        <time>2015-05-27T13:16:47Z</time>
      </trkpt>
      <trkpt lat="45.5491" lon="4.74381">
        <ele>454</ele>
        <time>2015-05-27T13:16:51Z</time>
      </trkpt>
      <trkpt lat="45.54904" lon="4.74378">
        <ele>454</ele>
        <time>2015-05-27T13:16:56Z</time>
      </trkpt>
      <trkpt lat="45.54902" lon="4.74378">
        <ele>454</ele>
        <time>2015-05-27T13:17:01Z</time>
      </trkpt>
      <trkpt lat="45.549" lon="4.74377">
        <ele>455</ele>
        <time>2015-05-27T13:17:06Z</time>
      </trkpt>
      <trkpt lat="45.54897" lon="4.74376">
        <ele>457</ele>
        <time>2015-05-27T13:17:11Z</time>
      </trkpt>
      <trkpt lat="45.54896" lon="4.74372">
        <ele>457</ele>
        <time>2015-05-27T13:17:16Z</time>
      </trkpt>
      <trkpt lat="45.54892" lon="4.74371">
        <ele>457</ele>
        <time>2015-05-27T13:17:21Z</time>
      </trkpt>
      <trkpt lat="45.54889" lon="4.74374">
        <ele>458</ele>
        <time>2015-05-27T13:17:26Z</time>
      </trkpt>
      <trkpt lat="45.54888" lon="4.74372">
        <ele>458</ele>
        <time>2015-05-27T13:17:31Z</time>
      </trkpt>
      <trkpt lat="45.54884" lon="4.74373">
        <ele>460</ele>
        <time>2015-05-27T13:17:38Z</time>
      </trkpt>
      <trkpt lat="45.54878" lon="4.74371">
        <ele>461</ele>
        <time>2015-05-27T13:17:43Z</time>
      </trkpt>
      <trkpt lat="45.54874" lon="4.7437">
        <ele>463</ele>
        <time>2015-05-27T13:17:47Z</time>
      </trkpt>
      <trkpt lat="45.54872" lon="4.7437">
        <ele>464</ele>
        <time>2015-05-27T13:17:49Z</time>
      </trkpt>
      <trkpt lat="45.54868" lon="4.74371">
        <ele>467</ele>
        <time>2015-05-27T13:17:54Z</time>
      </trkpt>
      <trkpt lat="45.5486" lon="4.74369">
        <ele>464</ele>
        <time>2015-05-27T13:17:59Z</time>
      </trkpt>
      <trkpt lat="45.54856" lon="4.74371">
        <ele>467</ele>
        <time>2015-05-27T13:18:04Z</time>
      </trkpt>
      <trkpt lat="45.54848" lon="4.7437">
        <ele>471</ele>
        <time>2015-05-27T13:18:09Z</time>
      </trkpt>
      <trkpt lat="45.54839" lon="4.74369">
        <ele>470</ele>
        <time>2015-05-27T13:18:15Z</time>
      </trkpt>
      <trkpt lat="45.54838" lon="4.74373">
        <ele>470</ele>
        <time>2015-05-27T13:18:19Z</time>
      </trkpt>
      <trkpt lat="45.54825" lon="4.74371">
        <ele>474</ele>
        <time>2015-05-27T13:18:25Z</time>
      </trkpt>
      <trkpt lat="45.54816" lon="4.74371">
        <ele>474</ele>
        <time>2015-05-27T13:18:32Z</time>
      </trkpt>
      <trkpt lat="45.54811" lon="4.74368">
        <ele>477</ele>
        <time>2015-05-27T13:18:34Z</time>
      </trkpt>
      <trkpt lat="45.54798" lon="4.74372">
        <ele>481</ele>
        <time>2015-05-27T13:18:42Z</time>
      </trkpt>
      <trkpt lat="45.54792" lon="4.74372">
        <ele>484</ele>
        <time>2015-05-27T13:18:45Z</time>
      </trkpt>
      <trkpt lat="45.54785" lon="4.74372">
        <ele>483</ele>
        <time>2015-05-27T13:18:49Z</time>
      </trkpt>
      <trkpt lat="45.54772" lon="4.74374">
        <ele>482</ele>
        <time>2015-05-27T13:18:56Z</time>
      </trkpt>
      <trkpt lat="45.54767" lon="4.74375">
        <ele>483</ele>
        <time>2015-05-27T13:18:59Z</time>
      </trkpt>
      <trkpt lat="45.54753" lon="4.74375">
        <ele>480</ele>
        <time>2015-05-27T13:19:05Z</time>
      </trkpt>
      <trkpt lat="45.54742" lon="4.74377">
        <ele>479</ele>
        <time>2015-05-27T13:19:09Z</time>
      </trkpt>
      <trkpt lat="45.54726" lon="4.74381">
        <ele>484</ele>
        <time>2015-05-27T13:19:16Z</time>
      </trkpt>
      <trkpt lat="45.5472" lon="4.74382">
        <ele>483</ele>
        <time>2015-05-27T13:19:20Z</time>
      </trkpt>
      <trkpt lat="45.54715" lon="4.74386">
        <ele>478</ele>
        <time>2015-05-27T13:19:25Z</time>
      </trkpt>
      <trkpt lat="45.54716" lon="4.74389">
        <ele>478</ele>
        <time>2015-05-27T13:19:30Z</time>
      </trkpt>
      <trkpt lat="45.54716" lon="4.7439">
        <ele>478</ele>
        <time>2015-05-27T13:19:34Z</time>
      </trkpt>
      <trkpt lat="45.54715" lon="4.7439">
        <ele>478</ele>
        <time>2015-05-27T13:19:37Z</time>
      </trkpt>
      <trkpt lat="45.54712" lon="4.74391">
        <ele>478</ele>
        <time>2015-05-27T13:19:40Z</time>
      </trkpt>
      <trkpt lat="45.54714" lon="4.74392">
        <ele>475</ele>
        <time>2015-05-27T13:19:45Z</time>
      </trkpt>
      <trkpt lat="45.54715" lon="4.74392">
        <ele>475</ele>
        <time>2015-05-27T13:19:48Z</time>
      </trkpt>
      <trkpt lat="45.54714" lon="4.74393">
        <ele>477</ele>
        <time>2015-05-27T13:19:51Z</time>
      </trkpt>
    </trkseg>
  </trk>
</gpx>